NOZ125 ENEV-ENGM
Flight info
| Callsign | NOZ125 |
|---|---|
| Flight time | N/A |
| Altitude | 38000 |
| Route | GEPTU1F GEPTU DCT SOMUB DCT BELGU BELGU3L |
| Aircraft | B38M/M-SDE1FGHILORVWXY/HB1 |
Departure
| Time | 2026-04-27 03:34 |
|---|---|
| Airport | Harstad/Narvik Airport (ENEV) |
Arrival
| Time | N/A |
|---|---|
| Airport | Oslo-Gardermoen International Airport (ENGM) |
| Time | Latitude | Longitude | Altitude | Speed | Heading |
|---|---|---|---|---|---|
| 2026-04-27 03:09 | 68.48980 | 16.68814 | 94 ft | 0 kts | 358° |
| 2026-04-27 03:25 | 68.48972 | 16.68815 | 95 ft | 4 kts | 358° |
| 2026-04-27 03:26 | 68.48945 | 16.68817 | 93 ft | 4 kts | 358° |
| 2026-04-27 03:26 | 68.48927 | 16.68819 | 95 ft | 0 kts | 358° |
| 2026-04-27 03:28 | 68.48929 | 16.68819 | 95 ft | 1 kts | 358° |
| 2026-04-27 03:28 | 68.48935 | 16.68802 | 93 ft | 1 kts | 288° |
| 2026-04-27 03:28 | 68.48928 | 16.68768 | 96 ft | 6 kts | 237° |
| 2026-04-27 03:28 | 68.48895 | 16.68589 | 96 ft | 14 kts | 260° |
| 2026-04-27 03:29 | 68.48890 | 16.68251 | 91 ft | 20 kts | 268° |
| 2026-04-27 03:29 | 68.48878 | 16.67896 | 96 ft | 16 kts | 234° |
| 2026-04-27 03:29 | 68.48758 | 16.67858 | 93 ft | 20 kts | 178° |
| 2026-04-27 03:29 | 68.48616 | 16.67873 | 97 ft | 21 kts | 178° |
| 2026-04-27 03:30 | 68.48466 | 16.67890 | 100 ft | 22 kts | 177° |
| 2026-04-27 03:30 | 68.48304 | 16.67909 | 97 ft | 24 kts | 177° |
| 2026-04-27 03:30 | 68.48145 | 16.67929 | 94 ft | 22 kts | 178° |
| 2026-04-27 03:30 | 68.48021 | 16.67905 | 93 ft | 8 kts | 165° |
| 2026-04-27 03:31 | 68.48021 | 16.67957 | 91 ft | 3 kts | 34° |
| 2026-04-27 03:31 | 68.48057 | 16.67941 | 95 ft | 8 kts | 354° |
| 2026-04-27 03:31 | 68.48079 | 16.67937 | 93 ft | 0 kts | 356° |
| 2026-04-27 03:33 | 68.48083 | 16.67937 | 94 ft | 5 kts | 356° |
| 2026-04-27 03:33 | 68.48404 | 16.67899 | 96 ft | 87 kts | 358° |
| 2026-04-27 03:33 | 68.49261 | 16.67800 | 98 ft | 156 kts | 357° |
| 2026-04-27 03:34 | 68.50405 | 16.67644 | 638 ft | 170 kts | 356° |
| 2026-04-27 03:34 | 68.51590 | 16.67209 | 1583 ft | 174 kts | 346° |
| 2026-04-27 03:34 | 68.52793 | 16.66615 | 2388 ft | 182 kts | 355° |
| 2026-04-27 03:34 | 68.54153 | 16.66590 | 2817 ft | 208 kts | 358° |
| 2026-04-27 03:35 | 68.55684 | 16.66598 | 3369 ft | 229 kts | 358° |
| 2026-04-27 03:35 | 68.57307 | 16.66582 | 4222 ft | 236 kts | 358° |
| 2026-04-27 03:35 | 68.58957 | 16.66545 | 5291 ft | 236 kts | 358° |
| 2026-04-27 03:35 | 68.60607 | 16.66418 | 6229 ft | 238 kts | 352° |
| 2026-04-27 03:36 | 68.62186 | 16.65105 | 7105 ft | 240 kts | 329° |
| 2026-04-27 03:36 | 68.63370 | 16.61980 | 7965 ft | 243 kts | 302° |
| 2026-04-27 03:36 | 68.63911 | 16.57555 | 8825 ft | 251 kts | 276° |
| 2026-04-27 03:36 | 68.63665 | 16.52782 | 9674 ft | 260 kts | 251° |
| 2026-04-27 03:37 | 68.62865 | 16.48266 | 10461 ft | 264 kts | 251° |
| 2026-04-27 03:37 | 68.62191 | 16.43551 | 11248 ft | 266 kts | 252° |
| 2026-04-27 03:37 | 68.61498 | 16.38881 | 11976 ft | 273 kts | 246° |
| 2026-04-27 03:37 | 68.60266 | 16.34668 | 12341 ft | 299 kts | 220° |
| 2026-04-27 03:38 | 68.58348 | 16.31964 | 12665 ft | 321 kts | 203° |
| 2026-04-27 03:38 | 68.56260 | 16.29444 | 13083 ft | 334 kts | 208° |
| 2026-04-27 03:38 | 68.54121 | 16.26647 | 13660 ft | 343 kts | 208° |
| 2026-04-27 03:38 | 68.51960 | 16.23871 | 14460 ft | 345 kts | 207° |
| 2026-04-27 03:39 | 68.49759 | 16.21071 | 15068 ft | 351 kts | 207° |
| 2026-04-27 03:39 | 68.47529 | 16.18256 | 15754 ft | 356 kts | 207° |
| 2026-04-27 03:39 | 68.45258 | 16.15404 | 16384 ft | 361 kts | 207° |
| 2026-04-27 03:39 | 68.42980 | 16.12551 | 17014 ft | 366 kts | 207° |
| 2026-04-27 03:40 | 68.40646 | 16.09636 | 17608 ft | 372 kts | 208° |
| 2026-04-27 03:40 | 68.38271 | 16.06672 | 18154 ft | 378 kts | 208° |
| 2026-04-27 03:40 | 68.36679 | 16.04692 | 18557 ft | 381 kts | 208° |
| 2026-04-27 03:40 | 68.33455 | 16.00689 | 19239 ft | 387 kts | 208° |
| 2026-04-27 03:41 | 68.31799 | 15.98638 | 19604 ft | 389 kts | 208° |
| 2026-04-27 03:41 | 68.28516 | 15.94579 | 20301 ft | 394 kts | 209° |
| 2026-04-27 03:41 | 68.26825 | 15.92493 | 20647 ft | 396 kts | 208° |
| 2026-04-27 03:41 | 68.24331 | 15.89427 | 21159 ft | 400 kts | 209° |
| 2026-04-27 03:42 | 68.21783 | 15.86300 | 21673 ft | 404 kts | 209° |
| 2026-04-27 03:42 | 68.19211 | 15.83153 | 22181 ft | 407 kts | 209° |
| 2026-04-27 03:42 | 68.16620 | 15.79990 | 22660 ft | 411 kts | 209° |
| 2026-04-27 03:42 | 68.14002 | 15.76803 | 23150 ft | 414 kts | 209° |
| 2026-04-27 03:43 | 68.11357 | 15.73590 | 23598 ft | 418 kts | 209° |
| 2026-04-27 03:43 | 68.08689 | 15.70360 | 23931 ft | 424 kts | 211° |
| 2026-04-27 03:43 | 68.05978 | 15.67085 | 24267 ft | 429 kts | 210° |
| 2026-04-27 03:43 | 68.03247 | 15.63794 | 24650 ft | 432 kts | 210° |
| 2026-04-27 03:44 | 68.00494 | 15.60484 | 25039 ft | 435 kts | 210° |
| 2026-04-27 03:44 | 67.97753 | 15.57199 | 25409 ft | 438 kts | 210° |
| 2026-04-27 03:44 | 67.94964 | 15.53863 | 25777 ft | 441 kts | 210° |
| 2026-04-27 03:44 | 67.92141 | 15.50497 | 26170 ft | 444 kts | 210° |
| 2026-04-27 03:45 | 67.89314 | 15.47135 | 26511 ft | 447 kts | 210° |
| 2026-04-27 03:45 | 67.86465 | 15.43751 | 26895 ft | 449 kts | 210° |
| 2026-04-27 03:45 | 67.83596 | 15.40363 | 27219 ft | 453 kts | 210° |
| 2026-04-27 03:45 | 67.80704 | 15.36954 | 27517 ft | 456 kts | 210° |
| 2026-04-27 03:46 | 67.77703 | 15.33966 | 27747 ft | 466 kts | 206° |
| 2026-04-27 03:46 | 67.74632 | 15.31128 | 28050 ft | 468 kts | 206° |
| 2026-04-27 03:46 | 67.71552 | 15.28234 | 28384 ft | 471 kts | 207° |
| 2026-04-27 03:46 | 67.68462 | 15.25311 | 28722 ft | 474 kts | 207° |
| 2026-04-27 03:47 | 67.65389 | 15.22400 | 29084 ft | 476 kts | 206° |
| 2026-04-27 03:47 | 67.62263 | 15.19447 | 29384 ft | 479 kts | 206° |
| 2026-04-27 03:47 | 67.59123 | 15.16487 | 29690 ft | 481 kts | 206° |
| 2026-04-27 03:47 | 67.55947 | 15.13502 | 29986 ft | 484 kts | 206° |
| 2026-04-27 03:48 | 67.52769 | 15.10522 | 30267 ft | 486 kts | 206° |
| 2026-04-27 03:48 | 67.49574 | 15.07539 | 30525 ft | 489 kts | 206° |
| 2026-04-27 03:48 | 67.46357 | 15.04539 | 30660 ft | 492 kts | 207° |
| 2026-04-27 03:49 | 67.42795 | 15.01230 | 30947 ft | 494 kts | 207° |
| 2026-04-27 03:49 | 67.39583 | 14.98258 | 31097 ft | 497 kts | 206° |
| 2026-04-27 03:49 | 67.38765 | 14.97503 | 31160 ft | 496 kts | 206° |
| 2026-04-27 03:49 | 67.37330 | 14.96177 | 31340 ft | 495 kts | 206° |
| 2026-04-27 03:50 | 67.36735 | 14.95628 | 31386 ft | 496 kts | 206° |
| 2026-04-27 03:50 | 67.33520 | 14.92663 | 31582 ft | 499 kts | 206° |
| 2026-04-27 03:50 | 67.30242 | 14.89652 | 31842 ft | 500 kts | 206° |
| 2026-04-27 03:50 | 67.26994 | 14.86675 | 32087 ft | 501 kts | 206° |
| 2026-04-27 03:51 | 67.23684 | 14.83653 | 32334 ft | 502 kts | 205° |
| 2026-04-27 03:51 | 67.20385 | 14.80650 | 32622 ft | 502 kts | 205° |
| 2026-04-27 03:51 | 67.17088 | 14.77656 | 33022 ft | 500 kts | 205° |
| 2026-04-27 03:51 | 67.13811 | 14.74687 | 33371 ft | 499 kts | 205° |
| 2026-04-27 03:52 | 67.10534 | 14.71730 | 33718 ft | 498 kts | 205° |
| 2026-04-27 03:52 | 67.07315 | 14.68831 | 34079 ft | 496 kts | 204° |
| 2026-04-27 03:52 | 67.04059 | 14.65908 | 34381 ft | 494 kts | 204° |
| 2026-04-27 03:52 | 67.00810 | 14.62998 | 34629 ft | 493 kts | 204° |
| 2026-04-27 03:53 | 66.97568 | 14.60105 | 34883 ft | 493 kts | 204° |
| 2026-04-27 03:53 | 66.94333 | 14.57225 | 35113 ft | 492 kts | 204° |
| 2026-04-27 03:53 | 66.91101 | 14.54357 | 35355 ft | 491 kts | 204° |
| 2026-04-27 03:53 | 66.87877 | 14.51504 | 35569 ft | 491 kts | 204° |
| 2026-04-27 03:54 | 66.84648 | 14.48654 | 35834 ft | 489 kts | 204° |
| 2026-04-27 03:54 | 66.81436 | 14.45825 | 36062 ft | 488 kts | 204° |
| 2026-04-27 03:54 | 66.78228 | 14.43010 | 36298 ft | 487 kts | 204° |
| 2026-04-27 03:54 | 66.75061 | 14.40238 | 36510 ft | 487 kts | 203° |
| 2026-04-27 03:55 | 66.71854 | 14.37438 | 36733 ft | 486 kts | 203° |
| 2026-04-27 03:55 | 66.68648 | 14.34646 | 36957 ft | 486 kts | 203° |
| 2026-04-27 03:55 | 66.65455 | 14.31874 | 37159 ft | 485 kts | 203° |
| 2026-04-27 03:55 | 66.62265 | 14.29113 | 37362 ft | 484 kts | 203° |
| 2026-04-27 03:56 | 66.59082 | 14.26365 | 37528 ft | 484 kts | 203° |
| 2026-04-27 03:56 | 66.52692 | 14.20870 | 37773 ft | 484 kts | 203° |
| 2026-04-27 03:56 | 66.49550 | 14.18177 | 37916 ft | 484 kts | 203° |
| 2026-04-27 03:57 | 66.46367 | 14.15460 | 38096 ft | 483 kts | 202° |
| 2026-04-27 03:57 | 66.43186 | 14.12750 | 38243 ft | 482 kts | 202° |
| 2026-04-27 03:57 | 66.40004 | 14.10047 | 38250 ft | 483 kts | 202° |
| 2026-04-27 03:58 | 66.33655 | 14.04673 | 38240 ft | 481 kts | 202° |
| 2026-04-27 03:58 | 66.27304 | 13.99329 | 38216 ft | 481 kts | 202° |
| 2026-04-27 03:59 | 66.20990 | 13.94043 | 38224 ft | 482 kts | 203° |
| 2026-04-27 03:59 | 66.14629 | 13.88746 | 38219 ft | 481 kts | 202° |
| 2026-04-27 04:00 | 66.08277 | 13.83484 | 38217 ft | 482 kts | 202° |
| 2026-04-27 04:00 | 66.01921 | 13.78247 | 38244 ft | 482 kts | 202° |
| 2026-04-27 04:01 | 65.95554 | 13.73029 | 38205 ft | 482 kts | 203° |
| 2026-04-27 04:01 | 65.91096 | 13.69391 | 38250 ft | 481 kts | 203° |
| 2026-04-27 04:02 | 65.86230 | 13.65435 | 38258 ft | 481 kts | 203° |
| 2026-04-27 04:03 | 65.81344 | 13.61479 | 38241 ft | 481 kts | 203° |
| 2026-04-27 04:03 | 65.75843 | 13.57044 | 38279 ft | 481 kts | 203° |
| 2026-04-27 04:04 | 65.71977 | 13.53939 | 38236 ft | 480 kts | 203° |
| 2026-04-27 04:04 | 65.71568 | 13.53611 | 38239 ft | 480 kts | 203° |
| 2026-04-27 04:05 | 65.65899 | 13.49078 | 38267 ft | 481 kts | 203° |
| 2026-04-27 04:05 | 65.62318 | 13.46224 | 38250 ft | 481 kts | 203° |
| 2026-04-27 04:06 | 65.55944 | 13.41167 | 38245 ft | 481 kts | 203° |
| 2026-04-27 04:06 | 65.49616 | 13.36172 | 38257 ft | 481 kts | 203° |
| 2026-04-27 04:07 | 65.40053 | 13.28671 | 38248 ft | 481 kts | 203° |
| 2026-04-27 04:07 | 65.33677 | 13.23700 | 38227 ft | 482 kts | 203° |
| 2026-04-27 04:08 | 65.27320 | 13.18772 | 38290 ft | 483 kts | 203° |
| 2026-04-27 04:08 | 65.20928 | 13.13841 | 38257 ft | 482 kts | 203° |
| 2026-04-27 04:09 | 65.14535 | 13.08933 | 38272 ft | 483 kts | 203° |
| 2026-04-27 04:09 | 65.08137 | 13.04048 | 38271 ft | 483 kts | 203° |
| 2026-04-27 04:10 | 65.01779 | 12.99216 | 38272 ft | 482 kts | 203° |
| 2026-04-27 04:10 | 64.95389 | 12.94385 | 38281 ft | 482 kts | 203° |
| 2026-04-27 04:11 | 64.88986 | 12.89568 | 38288 ft | 482 kts | 203° |
| 2026-04-27 04:11 | 64.82583 | 12.84776 | 38290 ft | 482 kts | 203° |
| 2026-04-27 04:12 | 64.76220 | 12.80036 | 38297 ft | 482 kts | 203° |
| 2026-04-27 04:12 | 64.69823 | 12.75295 | 38292 ft | 480 kts | 203° |
| 2026-04-27 04:13 | 64.63442 | 12.70589 | 38309 ft | 481 kts | 203° |
| 2026-04-27 04:13 | 64.57058 | 12.65905 | 38293 ft | 480 kts | 203° |
| 2026-04-27 04:14 | 64.50697 | 12.61260 | 38324 ft | 481 kts | 203° |
| 2026-04-27 04:14 | 64.44308 | 12.56618 | 38321 ft | 481 kts | 203° |
| 2026-04-27 04:15 | 64.37922 | 12.52000 | 38332 ft | 481 kts | 203° |
| 2026-04-27 04:15 | 64.31526 | 12.47398 | 38332 ft | 481 kts | 203° |
| 2026-04-27 04:16 | 64.27933 | 12.44822 | 38337 ft | 481 kts | 203° |
| 2026-04-27 04:16 | 64.21582 | 12.40285 | 38342 ft | 481 kts | 202° |
| 2026-04-27 04:17 | 64.15188 | 12.35742 | 38341 ft | 481 kts | 202° |
| 2026-04-27 04:17 | 64.08790 | 12.31216 | 38348 ft | 481 kts | 202° |
| 2026-04-27 04:18 | 64.02425 | 12.26736 | 38345 ft | 481 kts | 202° |
| 2026-04-27 04:18 | 63.96022 | 12.22250 | 38356 ft | 481 kts | 202° |
| 2026-04-27 04:19 | 63.89601 | 12.17774 | 38357 ft | 481 kts | 202° |
| 2026-04-27 04:19 | 63.83196 | 12.13330 | 38330 ft | 481 kts | 202° |
| 2026-04-27 04:20 | 63.76810 | 12.08917 | 38373 ft | 483 kts | 202° |
| 2026-04-27 04:20 | 63.70369 | 12.04487 | 38366 ft | 482 kts | 202° |
| 2026-04-27 04:21 | 63.63954 | 12.00095 | 38379 ft | 482 kts | 202° |
| 2026-04-27 04:21 | 63.57570 | 11.95744 | 38365 ft | 482 kts | 202° |
| 2026-04-27 04:22 | 63.51140 | 11.91383 | 38375 ft | 481 kts | 202° |
| 2026-04-27 04:22 | 63.44737 | 11.87058 | 38377 ft | 480 kts | 202° |
| 2026-04-27 04:23 | 63.40774 | 11.84393 | 38369 ft | 481 kts | 202° |
| 2026-04-27 04:23 | 63.38446 | 11.82830 | 38379 ft | 481 kts | 202° |
| 2026-04-27 04:24 | 63.32020 | 11.78814 | 38375 ft | 482 kts | 200° |
| 2026-04-27 04:24 | 63.30262 | 11.77762 | 38390 ft | 482 kts | 200° |
| 2026-04-27 04:25 | 63.29990 | 11.77598 | 38391 ft | 482 kts | 200° |
| 2026-04-27 04:26 | 63.27627 | 11.76172 | 38382 ft | 482 kts | 200° |
| 2026-04-27 04:26 | 63.25786 | 11.75059 | 38374 ft | 482 kts | 200° |
| 2026-04-27 04:27 | 63.22136 | 11.72856 | 38375 ft | 481 kts | 200° |
| 2026-04-27 04:27 | 63.15696 | 11.68978 | 38381 ft | 480 kts | 200° |
| 2026-04-27 04:28 | 63.09248 | 11.65114 | 38387 ft | 480 kts | 200° |
| 2026-04-27 04:28 | 63.03883 | 11.61912 | 38384 ft | 480 kts | 200° |
| 2026-04-27 04:29 | 62.98550 | 11.58741 | 38388 ft | 480 kts | 200° |
| 2026-04-27 04:29 | 62.95165 | 11.56735 | 38356 ft | 480 kts | 199° |
| 2026-04-27 04:30 | 62.88717 | 11.52927 | 38375 ft | 480 kts | 200° |
| 2026-04-27 04:30 | 62.82308 | 11.49159 | 38348 ft | 479 kts | 199° |
| 2026-04-27 04:31 | 62.75860 | 11.45385 | 38334 ft | 480 kts | 199° |
| 2026-04-27 04:31 | 62.69412 | 11.41628 | 38295 ft | 479 kts | 199° |
| 2026-04-27 04:32 | 62.62972 | 11.37892 | 38289 ft | 477 kts | 199° |
| 2026-04-27 04:32 | 62.61043 | 11.36777 | 38296 ft | 476 kts | 199° |
| 2026-04-27 04:34 | 62.61024 | 11.36766 | 38296 ft | 476 kts | 199° |
| 2026-04-27 04:34 | 62.55517 | 11.33588 | 38387 ft | 475 kts | 199° |
| 2026-04-27 04:35 | 62.51678 | 11.31382 | 38400 ft | 475 kts | 199° |
| 2026-04-27 04:35 | 62.49788 | 11.30297 | 38397 ft | 476 kts | 199° |
| 2026-04-27 04:36 | 62.43498 | 11.26698 | 38398 ft | 475 kts | 199° |
| 2026-04-27 04:36 | 62.37097 | 11.23051 | 38361 ft | 475 kts | 199° |
| 2026-04-27 04:37 | 62.30725 | 11.19438 | 38402 ft | 472 kts | 199° |
| 2026-04-27 04:37 | 62.24376 | 11.15852 | 38405 ft | 471 kts | 199° |
| 2026-04-27 04:38 | 62.18020 | 11.12278 | 38406 ft | 472 kts | 199° |